createdAt,value
2017-11-01T00:00:25.599Z,11.88
2017-11-01T00:02:55.385Z,11.90
2017-11-01T00:05:24.567Z,11.89
2017-11-01T00:07:53.825Z,11.92
2017-11-01T00:10:23.989Z,11.95
2017-11-01T00:12:53.192Z,11.96
2017-11-01T00:15:22.538Z,11.94
2017-11-01T00:17:55.000Z,11.94
2017-11-01T00:20:24.232Z,11.92
2017-11-01T00:22:54.233Z,11.93
2017-11-01T00:25:24.769Z,11.91
2017-11-01T00:27:54.009Z,11.90
2017-11-01T00:30:23.313Z,11.89
2017-11-01T00:32:53.711Z,11.83
2017-11-01T00:35:23.781Z,11.85
2017-11-01T00:37:52.995Z,11.85
2017-11-01T00:40:22.271Z,11.87
2017-11-01T00:42:52.167Z,11.90
2017-11-01T00:45:21.362Z,11.88
2017-11-01T00:47:52.529Z,11.91
2017-11-01T00:50:21.678Z,11.92
2017-11-01T00:52:50.867Z,11.90
2017-11-01T00:55:20.405Z,11.96
2017-11-01T00:57:49.550Z,11.96
2017-11-01T01:00:19.616Z,11.96
2017-11-01T01:02:49.413Z,12.00
2017-11-01T01:05:18.573Z,11.94
2017-11-01T01:07:47.724Z,11.98
2017-11-01T01:10:17.688Z,12.01
2017-11-01T01:12:46.841Z,12.03
2017-11-01T01:15:16.005Z,12.07
2017-11-01T01:17:45.621Z,12.05
2017-11-01T01:20:16.179Z,12.09
2017-11-01T01:22:45.423Z,12.09
2017-11-01T01:25:14.811Z,12.10
2017-11-01T01:27:44.074Z,12.07
2017-11-01T01:30:14.268Z,12.09
2017-11-01T01:32:43.580Z,12.10
2017-11-01T01:35:13.106Z,12.10
2017-11-01T01:37:42.387Z,12.10
2017-11-01T01:40:12.256Z,12.09
2017-11-01T01:42:41.818Z,12.10
2017-11-01T01:45:11.858Z,12.12
2017-11-01T01:47:42.032Z,12.15
2017-11-01T01:50:12.653Z,12.12
2017-11-01T01:52:41.920Z,12.13
2017-11-01T01:55:13.564Z,12.10
2017-11-01T01:57:42.746Z,12.08
2017-11-01T02:00:12.039Z,12.11
2017-11-01T02:02:42.050Z,12.13
2017-11-01T02:05:11.362Z,12.13
2017-11-01T02:07:40.859Z,12.12
2017-11-01T02:10:10.582Z,12.15
2017-11-01T02:12:39.775Z,12.16
2017-11-01T02:15:08.960Z,12.20
2017-11-01T02:17:39.074Z,12.20
2017-11-01T02:20:08.370Z,12.23
2017-11-01T02:22:38.385Z,12.22
2017-11-01T02:25:07.661Z,12.20
2017-11-01T02:27:36.851Z,12.17
2017-11-01T02:30:06.023Z,12.15
2017-11-01T02:32:35.282Z,12.19
2017-11-01T02:35:04.575Z,12.20
2017-11-01T02:37:33.803Z,12.21
2017-11-01T02:40:03.228Z,12.25
2017-11-01T02:42:32.527Z,12.27
2017-11-01T02:45:02.571Z,12.30
2017-11-01T02:47:31.797Z,12.31
2017-11-01T02:50:01.227Z,12.32
2017-11-01T02:52:30.466Z,12.33
2017-11-01T02:55:00.638Z,12.35
2017-11-01T02:57:30.088Z,12.38
2017-11-01T03:00:01.938Z,12.39
2017-11-01T03:02:34.783Z,12.38
2017-11-01T03:05:06.279Z,12.39
2017-11-01T03:07:35.503Z,12.39
2017-11-01T03:10:04.682Z,12.44
2017-11-01T03:12:34.025Z,12.47
2017-11-01T03:15:03.226Z,12.48
2017-11-01T03:17:33.286Z,12.50
2017-11-01T03:20:02.614Z,12.51
2017-11-01T03:22:31.849Z,12.53
2017-11-01T03:25:01.124Z,12.55
2017-11-01T03:27:30.408Z,12.56
2017-11-01T03:30:00.457Z,12.60
2017-11-01T03:32:29.726Z,12.60
2017-11-01T03:35:00.303Z,12.65
2017-11-01T03:37:29.722Z,12.69
2017-11-01T03:39:59.782Z,12.67
2017-11-01T03:42:29.495Z,12.74
2017-11-01T03:44:58.764Z,12.79
2017-11-01T03:47:28.810Z,12.82
2017-11-01T03:49:59.040Z,12.87
2017-11-01T03:52:28.360Z,12.87
2017-11-01T03:54:57.885Z,12.89
2017-11-01T03:57:27.984Z,12.94
2017-11-01T03:59:57.258Z,12.99
2017-11-01T04:02:26.513Z,13.00
2017-11-01T04:04:56.811Z,12.99
2017-11-01T04:07:26.240Z,13.00
2017-11-01T04:09:55.614Z,13.02
2017-11-01T04:12:25.813Z,13.06
2017-11-01T04:14:55.948Z,13.10
2017-11-01T04:17:26.279Z,13.10
2017-11-01T04:19:56.454Z,13.15
2017-11-01T04:22:25.761Z,13.16
2017-11-01T04:24:56.023Z,13.16
2017-11-01T04:27:25.378Z,13.19
2017-11-01T04:29:54.733Z,13.19
2017-11-01T04:32:24.424Z,13.22
2017-11-01T04:34:54.837Z,13.25
2017-11-01T04:37:24.065Z,13.28
2017-11-01T04:39:53.514Z,13.27
2017-11-01T04:42:22.721Z,13.30
2017-11-01T04:44:51.945Z,13.29
2017-11-01T04:47:21.254Z,13.31
2017-11-01T04:49:50.491Z,13.33
2017-11-01T04:52:19.773Z,13.37
2017-11-01T04:54:49.805Z,13.39
2017-11-01T04:57:19.122Z,13.40
2017-11-01T04:59:48.357Z,13.39
2017-11-01T05:05:15.348Z,13.44
2017-11-01T05:07:44.615Z,13.47
2017-11-01T05:10:16.488Z,13.47
2017-11-01T05:12:52.128Z,13.53
2017-11-01T05:15:21.366Z,13.51
2017-11-01T05:17:51.812Z,13.55
2017-11-01T05:20:22.810Z,13.59
2017-11-01T05:22:52.810Z,13.61
2017-11-01T05:25:23.932Z,13.61
2017-11-01T05:27:53.103Z,13.58
2017-11-01T05:30:22.309Z,13.62
2017-11-01T05:32:51.551Z,13.66
2017-11-01T05:35:21.719Z,13.67
2017-11-01T05:37:51.125Z,13.63
2017-11-01T05:40:21.120Z,13.66
2017-11-01T05:42:51.142Z,13.62
2017-11-01T05:45:20.431Z,13.65
2017-11-01T05:47:49.747Z,13.65
2017-11-01T05:50:19.375Z,13.67
2017-11-01T05:52:48.579Z,13.68
2017-11-01T05:55:17.894Z,13.69
2017-11-01T05:57:47.069Z,13.68
2017-11-01T06:00:16.303Z,13.69
2017-11-01T06:02:45.589Z,13.73
2017-11-01T06:05:14.819Z,13.69
2017-11-01T06:07:47.919Z,13.68
2017-11-01T06:10:17.179Z,13.68
2017-11-01T06:12:46.361Z,13.74
2017-11-01T06:15:15.597Z,13.74
2017-11-01T06:17:46.710Z,13.72
2017-11-01T06:20:15.908Z,13.74
2017-11-01T06:22:45.342Z,13.77
2017-11-01T06:25:14.541Z,13.79
2017-11-01T06:27:43.873Z,13.75
2017-11-01T06:30:14.215Z,13.73
2017-11-01T06:32:44.489Z,13.76
2017-11-01T06:35:13.705Z,13.74
2017-11-01T06:37:44.695Z,13.76
2017-11-01T06:40:13.972Z,13.75
2017-11-01T06:42:43.227Z,13.73
2017-11-01T06:45:13.150Z,13.74
2017-11-01T06:47:43.095Z,13.74
2017-11-01T06:50:12.503Z,13.74
2017-11-01T06:52:43.046Z,13.75
2017-11-01T06:55:12.311Z,13.77
2017-11-01T06:57:41.473Z,13.79
2017-11-01T07:00:13.099Z,13.80
2017-11-01T07:02:44.288Z,13.83
2017-11-01T07:05:22.758Z,13.86
2017-11-01T07:07:52.255Z,13.81
2017-11-01T07:10:21.521Z,13.81
2017-11-01T07:12:50.756Z,13.84
2017-11-01T07:15:19.966Z,13.85
2017-11-01T07:17:49.158Z,13.85
2017-11-01T07:20:20.187Z,13.89
2017-11-01T07:22:49.414Z,13.90
2017-11-01T07:25:20.317Z,13.92
2017-11-01T07:27:49.484Z,13.94
2017-11-01T07:30:19.471Z,13.96
2017-11-01T07:32:49.444Z,13.93
2017-11-01T07:35:19.405Z,13.94
2017-11-01T07:37:48.573Z,13.96
2017-11-01T07:40:17.848Z,13.96
2017-11-01T07:42:48.526Z,13.97
2017-11-01T07:45:17.729Z,13.99
2017-11-01T07:47:47.572Z,14.04
2017-11-01T07:50:17.569Z,14.05
2017-11-01T07:52:46.847Z,14.08
2017-11-01T07:55:16.332Z,14.12
2017-11-01T07:57:46.188Z,14.15
2017-11-01T08:00:15.366Z,14.16
2017-11-01T08:02:45.327Z,14.26
2017-11-01T08:05:14.477Z,14.28
2017-11-01T08:07:43.646Z,14.32
2017-11-01T08:10:12.868Z,14.33
2017-11-01T08:12:42.004Z,14.31
2017-11-01T08:15:11.176Z,14.42
2017-11-01T08:17:40.997Z,14.44
2017-11-01T08:20:10.149Z,14.46
2017-11-01T08:22:39.314Z,14.48
2017-11-01T08:25:09.325Z,14.49
2017-11-01T08:27:39.241Z,14.49
2017-11-01T08:30:08.427Z,14.47
2017-11-01T08:32:39.506Z,14.41
2017-11-01T08:35:09.408Z,14.48
2017-11-01T08:37:38.697Z,14.51
2017-11-01T08:40:08.789Z,14.59
2017-11-01T08:42:38.741Z,14.66
2017-11-01T08:45:08.015Z,14.70
2017-11-01T08:47:37.259Z,14.67
2017-11-01T08:50:06.585Z,14.60
2017-11-01T08:52:35.903Z,14.49
2017-11-01T08:55:05.258Z,14.50
2017-11-01T08:57:34.557Z,14.51
2017-11-01T09:00:03.951Z,14.54
2017-11-01T09:02:33.323Z,14.56
2017-11-01T09:05:03.389Z,14.59
2017-11-01T09:07:33.130Z,14.60
2017-11-01T09:10:02.999Z,14.57
2017-11-01T09:12:38.771Z,14.52
2017-11-01T09:15:08.005Z,14.48
2017-11-01T09:17:42.330Z,14.47
2017-11-01T09:20:14.794Z,14.45
2017-11-01T09:22:44.770Z,14.48
2017-11-01T09:25:14.019Z,14.45
2017-11-01T09:27:44.097Z,14.49
2017-11-01T09:30:13.462Z,14.49
2017-11-01T09:32:43.746Z,14.55
2017-11-01T09:35:13.278Z,14.58
2017-11-01T09:37:42.672Z,14.59
2017-11-01T09:40:11.923Z,14.61
2017-11-01T09:42:41.120Z,14.62
2017-11-01T09:45:10.287Z,14.59
2017-11-01T09:47:39.463Z,14.57
2017-11-01T09:50:09.868Z,14.55
2017-11-01T09:52:39.294Z,14.55
2017-11-01T09:55:08.506Z,14.53
2017-11-01T09:57:37.872Z,14.59
2017-11-01T10:00:07.070Z,14.70
2017-11-01T10:02:36.284Z,14.71
2017-11-01T10:05:05.574Z,14.76
2017-11-01T10:07:35.842Z,14.77
2017-11-01T10:10:05.096Z,14.83
2017-11-01T10:12:35.159Z,14.80
2017-11-01T10:15:04.550Z,14.84
2017-11-01T10:17:33.760Z,14.85
2017-11-01T10:20:03.509Z,14.77
2017-11-01T10:22:33.071Z,14.73
2017-11-01T10:25:02.548Z,14.67
2017-11-01T10:27:32.133Z,14.68
2017-11-01T10:30:02.595Z,14.68
2017-11-01T10:32:31.970Z,14.67
2017-11-01T10:35:02.018Z,14.57
2017-11-01T10:37:31.883Z,14.58
2017-11-01T10:40:01.823Z,14.59
2017-11-01T10:42:32.015Z,14.53
2017-11-01T10:45:02.125Z,14.51
2017-11-01T10:47:32.313Z,14.53
2017-11-01T10:50:01.802Z,14.52
2017-11-01T10:52:31.059Z,14.56
2017-11-01T10:55:02.087Z,14.59
2017-11-01T10:57:31.325Z,14.59
2017-11-01T11:00:00.716Z,14.57
2017-11-01T11:02:30.017Z,14.59
2017-11-01T11:05:01.160Z,14.57
2017-11-01T11:07:31.290Z,14.62
2017-11-01T11:10:00.604Z,14.64
2017-11-01T11:12:29.935Z,14.65
2017-11-01T11:14:59.917Z,14.58
2017-11-01T11:17:29.957Z,14.53
2017-11-01T11:19:59.479Z,14.47
2017-11-01T11:22:38.642Z,14.46
2017-11-01T11:25:07.898Z,14.45
2017-11-01T11:27:37.151Z,14.42
2017-11-01T11:30:07.216Z,14.43
2017-11-01T11:32:36.458Z,14.41
2017-11-01T11:35:10.806Z,14.36
2017-11-01T11:37:40.480Z,14.33
2017-11-01T11:40:12.925Z,14.34
2017-11-01T11:42:42.200Z,14.37
2017-11-01T11:45:11.514Z,14.39
2017-11-01T11:47:42.351Z,14.33
2017-11-01T11:50:11.598Z,14.32
2017-11-01T11:52:40.827Z,14.40
2017-11-01T11:55:11.123Z,14.39
2017-11-01T11:57:40.484Z,14.38
2017-11-01T12:00:09.738Z,14.47
2017-11-01T12:02:40.586Z,14.46
2017-11-01T12:05:10.063Z,14.53
2017-11-01T12:07:44.203Z,14.56
2017-11-01T12:10:13.884Z,14.55
2017-11-01T12:12:44.459Z,14.53
2017-11-01T12:15:15.122Z,14.56
2017-11-01T12:17:48.783Z,14.59
2017-11-01T12:20:18.295Z,14.59
2017-11-01T12:22:47.771Z,14.63
2017-11-01T12:25:17.422Z,14.65
2017-11-01T12:27:47.397Z,14.68
2017-11-01T12:30:17.695Z,14.75
2017-11-01T12:32:47.211Z,14.73
2017-11-01T12:35:17.037Z,14.72
2017-11-01T12:37:46.231Z,14.71
2017-11-01T12:40:16.277Z,14.68
2017-11-01T12:42:45.926Z,14.68
2017-11-01T12:45:15.173Z,14.66
2017-11-01T12:47:44.498Z,14.59
2017-11-01T12:50:13.781Z,14.66
2017-11-01T12:52:43.057Z,14.62
2017-11-01T12:55:15.385Z,14.65
2017-11-01T12:57:45.952Z,14.66
2017-11-01T13:00:15.923Z,14.71
2017-11-01T13:02:45.258Z,14.72
2017-11-01T13:05:14.543Z,14.77
2017-11-01T13:07:43.750Z,14.79
2017-11-01T13:10:12.934Z,14.76
2017-11-01T13:12:42.649Z,14.71
2017-11-01T13:15:12.255Z,14.64
2017-11-01T13:17:43.723Z,14.66
2017-11-01T13:20:13.163Z,14.68
2017-11-01T13:22:45.808Z,14.67
2017-11-01T13:25:15.375Z,14.62
2017-11-01T13:27:44.790Z,14.68
2017-11-01T13:30:14.196Z,14.71
2017-11-01T13:32:44.237Z,14.68
2017-11-01T13:35:14.600Z,14.67
2017-11-01T13:37:46.231Z,14.62
2017-11-01T13:40:18.412Z,14.58
2017-11-01T13:42:48.505Z,14.58
2017-11-01T13:45:18.705Z,14.55
2017-11-01T13:47:48.913Z,14.45
2017-11-01T13:50:19.411Z,14.41
2017-11-01T13:52:49.890Z,14.43
2017-11-01T13:55:19.197Z,14.42
2017-11-01T13:57:48.461Z,14.44
2017-11-01T14:00:19.455Z,14.41
2017-11-01T14:02:48.700Z,14.37
2017-11-01T14:05:18.663Z,14.34
2017-11-01T14:07:48.642Z,14.33
2017-11-01T14:10:17.877Z,14.38
2017-11-01T14:12:49.227Z,14.35
2017-11-01T14:15:20.297Z,14.32
2017-11-01T14:17:49.548Z,14.24
2017-11-01T14:20:19.413Z,14.24
2017-11-01T14:22:49.148Z,14.21
2017-11-01T14:25:21.167Z,14.31
2017-11-01T14:27:50.918Z,14.33
2017-11-01T14:30:20.594Z,14.38
2017-11-01T14:32:50.683Z,14.37
2017-11-01T14:35:19.865Z,14.32
2017-11-01T14:37:49.876Z,14.36
2017-11-01T14:40:20.061Z,14.30
2017-11-01T14:42:49.322Z,14.27
2017-11-01T14:45:18.977Z,14.28
2017-11-01T14:47:49.195Z,14.22
2017-11-01T14:50:18.406Z,14.12
2017-11-01T14:52:48.042Z,14.11
2017-11-01T14:55:17.513Z,14.05
2017-11-01T14:57:47.076Z,14.01
2017-11-01T15:00:16.977Z,13.95
2017-11-01T15:02:46.414Z,13.94
2017-11-01T15:05:16.098Z,13.93
2017-11-01T15:07:47.621Z,13.93
2017-11-01T15:10:21.496Z,13.91
2017-11-01T15:12:50.816Z,13.89
2017-11-01T15:15:22.499Z,13.88
2017-11-01T15:17:52.688Z,13.89
2017-11-01T15:20:22.280Z,13.83
2017-11-01T15:22:54.120Z,13.81
2017-11-01T15:25:24.204Z,13.81
2017-11-01T15:27:54.000Z,13.77
2017-11-01T15:30:24.372Z,13.78
2017-11-01T15:32:54.143Z,13.80
2017-11-01T15:35:23.750Z,13.81
2017-11-01T15:37:55.464Z,13.84
2017-11-01T15:40:26.369Z,13.83
2017-11-01T15:42:57.158Z,13.87
2017-11-01T15:45:27.192Z,13.83
2017-11-01T15:47:57.239Z,13.79
2017-11-01T15:50:27.366Z,13.77
2017-11-01T15:52:56.974Z,13.77
2017-11-01T15:55:26.878Z,13.73
2017-11-01T15:57:56.821Z,13.69
2017-11-01T16:00:27.526Z,13.70
2017-11-01T16:03:01.414Z,13.66
2017-11-01T16:05:34.801Z,13.68
2017-11-01T16:08:05.205Z,13.66
2017-11-01T16:10:37.247Z,13.66
2017-11-01T16:13:07.893Z,13.67
2017-11-01T16:15:37.718Z,13.65
2017-11-01T16:18:08.416Z,13.65
2017-11-01T16:20:40.489Z,13.60
2017-11-01T16:23:11.275Z,13.62
2017-11-01T16:25:41.002Z,13.65
2017-11-01T16:28:10.356Z,13.67
2017-11-01T16:30:40.843Z,13.66
2017-11-01T16:33:17.388Z,13.65
2017-11-01T16:35:48.225Z,13.67
2017-11-01T16:38:18.733Z,13.63
2017-11-01T16:40:48.187Z,13.66
2017-11-01T16:43:18.296Z,13.67
2017-11-01T16:48:23.973Z,13.74
2017-11-01T16:50:55.574Z,13.78
2017-11-01T16:53:26.261Z,13.74
2017-11-01T16:55:58.241Z,13.73
2017-11-01T16:58:32.729Z,13.73
2017-11-01T17:01:02.055Z,13.73
2017-11-01T17:03:31.963Z,13.75
2017-11-01T17:06:01.569Z,13.76
2017-11-01T17:08:31.388Z,13.79
2017-11-01T17:11:01.252Z,13.78
2017-11-01T17:13:31.070Z,13.84
2017-11-01T17:16:03.077Z,13.85
2017-11-01T17:18:33.668Z,13.89
2017-11-01T17:21:04.573Z,13.87
2017-11-01T17:23:35.346Z,13.86
2017-11-01T17:26:07.117Z,13.89
2017-11-01T17:28:39.321Z,13.86
2017-11-01T17:31:09.985Z,13.81
2017-11-01T17:33:42.021Z,13.80
2017-11-01T17:36:13.916Z,13.77
2017-11-01T17:38:44.688Z,13.74
2017-11-01T17:41:19.099Z,13.79
2017-11-01T17:43:51.324Z,13.76
2017-11-01T17:46:21.790Z,13.73
2017-11-01T17:48:52.075Z,13.74
2017-11-01T17:51:23.275Z,13.75
2017-11-01T17:53:53.860Z,13.76
2017-11-01T17:56:29.175Z,13.71
2017-11-01T17:58:58.703Z,13.79
2017-11-01T18:01:35.315Z,13.79
2017-11-01T18:04:05.552Z,13.80
2017-11-01T18:06:34.957Z,13.84
2017-11-01T18:09:04.663Z,13.85
2017-11-01T18:11:36.540Z,13.84
2017-11-01T18:14:09.090Z,13.85
2017-11-01T18:16:40.125Z,13.80
2017-11-01T18:19:11.671Z,13.81
2017-11-01T18:21:42.058Z,13.80
2017-11-01T18:24:11.698Z,13.77
2017-11-01T18:26:42.153Z,13.78
2017-11-01T18:29:11.659Z,13.77
2017-11-01T18:31:41.414Z,13.78
2017-11-01T18:34:12.224Z,13.75
2017-11-01T18:36:42.323Z,13.76
2017-11-01T18:39:12.472Z,13.77
2017-11-01T18:41:42.627Z,13.71
2017-11-01T18:44:12.527Z,13.65
2017-11-01T18:46:45.429Z,13.63
2017-11-01T18:49:15.176Z,13.62
2017-11-01T18:51:46.035Z,13.62
2017-11-01T18:54:15.381Z,13.55
2017-11-01T18:56:45.716Z,13.53
2017-11-01T18:59:15.785Z,13.48
2017-11-01T19:01:45.940Z,13.51
2017-11-01T19:04:15.153Z,13.46
2017-11-01T19:06:45.529Z,13.44
2017-11-01T19:09:14.994Z,13.40
2017-11-01T19:11:44.261Z,13.40
2017-11-01T19:14:15.968Z,13.38
2017-11-01T19:16:45.213Z,13.43
2017-11-01T19:19:14.403Z,13.42
2017-11-01T19:21:45.010Z,13.39
2017-11-01T19:24:14.498Z,13.39
2017-11-01T19:26:47.274Z,13.40
2017-11-01T19:29:16.895Z,13.35
2017-11-01T19:31:46.121Z,13.38
2017-11-01T19:34:15.969Z,13.39
2017-11-01T19:36:45.221Z,13.40
2017-11-01T19:39:14.432Z,13.38
2017-11-01T19:41:44.075Z,13.37
2017-11-01T19:44:14.101Z,13.32
2017-11-01T19:46:44.071Z,13.26
2017-11-01T19:49:13.473Z,13.19
2017-11-01T19:51:52.350Z,13.14
2017-11-01T19:54:41.639Z,13.11
2017-11-01T19:57:24.372Z,13.12
2017-11-01T19:59:55.270Z,13.10
2017-11-01T20:02:26.746Z,13.08
2017-11-01T20:08:07.712Z,13.06
2017-11-01T20:10:48.987Z,13.02
2017-11-01T20:13:36.002Z,13.04
2017-11-01T20:16:06.057Z,13.07
2017-11-01T20:18:36.844Z,13.05
2017-11-01T20:21:12.356Z,13.07
2017-11-01T20:23:43.577Z,13.06
2017-11-01T20:26:20.690Z,13.12
2017-11-01T20:29:02.455Z,13.14
2017-11-01T20:31:40.874Z,13.10
2017-11-01T20:34:20.006Z,13.14
2017-11-01T20:36:51.018Z,13.08
2017-11-01T20:39:20.941Z,13.04
2017-11-01T20:41:52.478Z,12.99
2017-11-01T20:44:22.452Z,13.01
2017-11-01T20:46:52.713Z,12.95
2017-11-01T20:49:27.659Z,12.91
2017-11-01T20:51:57.915Z,12.89
2017-11-01T20:54:32.491Z,12.84
2017-11-01T20:57:03.546Z,12.80
2017-11-01T20:59:32.906Z,12.70
2017-11-01T21:02:02.442Z,12.63
2017-11-01T21:04:32.188Z,12.56
2017-11-01T21:07:03.254Z,12.51
2017-11-01T21:09:32.886Z,12.45
2017-11-01T21:12:02.109Z,12.40
2017-11-01T21:14:35.248Z,12.41
2017-11-01T21:17:05.300Z,12.32
2017-11-01T21:19:36.586Z,12.31
2017-11-01T21:22:06.496Z,12.29
2017-11-01T21:24:38.278Z,12.23
2017-11-01T21:27:29.687Z,12.16
2017-11-01T21:30:06.996Z,12.18
2017-11-01T21:32:37.557Z,12.13
2017-11-01T21:35:10.155Z,12.13
2017-11-01T21:37:42.306Z,12.04
2017-11-01T21:40:15.331Z,11.96
2017-11-01T21:42:49.197Z,11.91
2017-11-01T21:45:19.416Z,11.85
2017-11-01T21:47:48.713Z,11.79
2017-11-01T21:50:17.954Z,11.78
2017-11-01T21:52:49.001Z,11.80
2017-11-01T21:55:18.531Z,11.83
2017-11-01T21:57:47.834Z,11.84
2017-11-01T22:00:17.946Z,11.82
2017-11-01T22:02:47.617Z,11.82
2017-11-01T22:05:17.586Z,11.82
2017-11-01T22:07:48.278Z,11.80
2017-11-01T22:10:18.680Z,11.79
2017-11-01T22:12:47.910Z,11.75
2017-11-01T22:15:19.030Z,11.69
2017-11-01T22:17:48.445Z,11.72
2017-11-01T22:20:18.014Z,11.67
2017-11-01T22:22:48.668Z,11.69
2017-11-01T22:25:18.077Z,11.71
2017-11-01T22:27:52.291Z,11.73
2017-11-01T22:30:22.650Z,11.71
2017-11-01T22:32:52.833Z,11.71
2017-11-01T22:35:22.070Z,11.66
2017-11-01T22:37:51.549Z,11.67
2017-11-01T22:40:21.480Z,11.65
2017-11-01T22:42:50.937Z,11.64
2017-11-01T22:45:20.120Z,11.63
2017-11-01T22:47:51.595Z,11.61
2017-11-01T22:50:20.826Z,11.57
2017-11-01T22:52:50.525Z,11.54
2017-11-01T22:55:20.338Z,11.52
2017-11-01T22:57:49.932Z,11.51
2017-11-01T23:00:20.655Z,11.49
2017-11-01T23:02:50.707Z,11.51
2017-11-01T23:05:20.060Z,11.51
2017-11-01T23:07:50.965Z,11.44
2017-11-01T23:10:21.054Z,11.49
2017-11-01T23:12:50.508Z,11.47
2017-11-01T23:15:19.740Z,11.42
2017-11-01T23:17:48.963Z,11.45
2017-11-01T23:20:18.884Z,11.46
2017-11-01T23:22:48.067Z,11.46
2017-11-01T23:25:17.945Z,11.46
2017-11-01T23:27:47.206Z,11.47
2017-11-01T23:30:16.485Z,11.45
2017-11-01T23:32:45.831Z,11.41
2017-11-01T23:35:15.047Z,11.43
2017-11-01T23:37:45.205Z,11.44
2017-11-01T23:40:15.724Z,11.41
2017-11-01T23:42:44.937Z,11.41
2017-11-01T23:45:14.199Z,11.40
2017-11-01T23:47:44.738Z,11.38
2017-11-01T23:50:15.374Z,11.36
2017-11-01T23:52:46.735Z,11.35
2017-11-01T23:55:16.011Z,11.35
2017-11-01T23:57:45.195Z,11.36
